sensor_id;sensor_type;location;lat;lon;timestamp;pressure;altitude;pressure_sealevel;temperature;humidity
46638;BME280;32365;46.938;7.390;2023-03-16T08:15:12;95377.16;;;7.80;49.65
46638;BME280;32365;46.938;7.390;2023-03-16T08:17:39;95371.19;;;8.74;47.86
46638;BME280;32365;46.938;7.390;2023-03-16T08:20:07;95379.34;;;9.81;45.90
46638;BME280;32365;46.938;7.390;2023-03-16T08:22:38;95371.28;;;9.16;44.45
46638;BME280;32365;46.938;7.390;2023-03-16T08:25:06;95375.13;;;8.76;44.71
46638;BME280;32365;46.938;7.390;2023-03-16T08:27:34;95360.81;;;9.96;43.65
46638;BME280;32365;46.938;7.390;2023-03-16T08:30:02;95361.28;;;9.50;46.24
46638;BME280;32365;46.938;7.390;2023-03-16T08:32:32;95361.09;;;11.69;40.79
46638;BME280;32365;46.938;7.390;2023-03-16T08:34:58;95364.97;;;9.97;43.72
46638;BME280;32365;46.938;7.390;2023-03-16T08:37:25;95361.94;;;10.24;43.47
46638;BME280;32365;46.938;7.390;2023-03-16T08:39:52;95355.91;;;11.69;39.71
46638;BME280;32365;46.938;7.390;2023-03-16T08:42:19;95368.63;;;11.54;40.23
46638;BME280;32365;46.938;7.390;2023-03-16T08:44:46;95360.94;;;14.79;33.31
46638;BME280;32365;46.938;7.390;2023-03-16T08:47:13;95356.31;;;13.41;35.67
46638;BME280;32365;46.938;7.390;2023-03-16T08:49:40;95355.19;;;14.29;32.06
46638;BME280;32365;46.938;7.390;2023-03-16T08:52:07;95346.38;;;13.10;34.64
46638;BME280;32365;46.938;7.390;2023-03-16T08:54:34;95346.63;;;13.36;33.92
46638;BME280;32365;46.938;7.390;2023-03-16T08:57:01;95345.84;;;14.33;32.34
46638;BME280;32365;46.938;7.390;2023-03-16T08:59:27;95340.03;;;14.21;31.00
46638;BME280;32365;46.938;7.390;2023-03-16T09:01:54;95334.03;;;12.34;36.20
46638;BME280;32365;46.938;7.390;2023-03-16T09:04:21;95333.88;;;13.62;34.83
46638;BME280;32365;46.938;7.390;2023-03-16T09:06:49;95337.31;;;15.06;31.50
46638;BME280;32365;46.938;7.390;2023-03-16T09:09:16;95330.88;;;14.61;31.14
46638;BME280;32365;46.938;7.390;2023-03-16T09:11:43;95335.94;;;11.53;35.72
46638;BME280;32365;46.938;7.390;2023-03-16T09:14:09;95341.13;;;10.19;38.00
46638;BME280;32365;46.938;7.390;2023-03-16T09:16:36;95340.78;;;12.12;38.23
46638;BME280;32365;46.938;7.390;2023-03-16T09:19:03;95327.69;;;15.28;31.48
46638;BME280;32365;46.938;7.390;2023-03-16T09:21:31;95336.00;;;16.59;28.29
46638;BME280;32365;46.938;7.390;2023-03-16T09:24:00;95335.25;;;15.19;30.58
46638;BME280;32365;46.938;7.390;2023-03-16T09:26:27;95330.59;;;15.21;30.33
46638;BME280;32365;46.938;7.390;2023-03-16T09:28:54;95337.53;;;13.61;32.35
46638;BME280;32365;46.938;7.390;2023-03-16T09:31:21;95333.13;;;15.05;31.68
46638;BME280;32365;46.938;7.390;2023-03-16T09:33:47;95326.66;;;17.53;27.65
46638;BME280;32365;46.938;7.390;2023-03-16T09:36:14;95322.13;;;17.93;26.95
46638;BME280;32365;46.938;7.390;2023-03-16T09:38:42;95320.97;;;16.96;28.79
46638;BME280;32365;46.938;7.390;2023-03-16T09:41:23;95307.41;;;15.92;28.74
46638;BME280;32365;46.938;7.390;2023-03-16T09:44:00;95308.47;;;15.85;28.37
46638;BME280;32365;46.938;7.390;2023-03-16T09:46:31;95310.00;;;14.56;31.52
46638;BME280;32365;46.938;7.390;2023-03-16T09:49:00;95307.88;;;15.11;28.70
46638;BME280;32365;46.938;7.390;2023-03-16T09:51:38;95302.69;;;16.04;29.35
46638;BME280;32365;46.938;7.390;2023-03-16T09:54:17;95310.22;;;18.11;27.11
46638;BME280;32365;46.938;7.390;2023-03-16T09:56:47;95299.88;;;14.65;31.87
46638;BME280;32365;46.938;7.390;2023-03-16T09:59:15;95306.16;;;18.49;26.69
46638;BME280;32365;46.938;7.390;2023-03-16T10:01:52;95301.19;;;16.69;26.72
46638;BME280;32365;46.938;7.390;2023-03-16T10:04:37;95304.84;;;17.92;26.28
46638;BME280;32365;46.938;7.390;2023-03-16T10:07:15;95307.41;;;16.78;27.58
46638;BME280;32365;46.938;7.390;2023-03-16T10:09:49;95303.13;;;17.08;27.03
46638;BME280;32365;46.938;7.390;2023-03-16T10:12:21;95294.53;;;17.77;25.69
46638;BME280;32365;46.938;7.390;2023-03-16T10:14:55;95288.25;;;17.78;26.46
46638;BME280;32365;46.938;7.390;2023-03-16T10:17:28;95295.66;;;16.81;27.08
46638;BME280;32365;46.938;7.390;2023-03-16T10:19:58;95292.50;;;17.68;25.28
46638;BME280;32365;46.938;7.390;2023-03-16T10:22:31;95281.09;;;19.24;23.67
46638;BME280;32365;46.938;7.390;2023-03-16T10:25:02;95288.47;;;20.07;21.64
46638;BME280;32365;46.938;7.390;2023-03-16T10:27:34;95285.34;;;19.20;24.40
46638;BME280;32365;46.938;7.390;2023-03-16T10:30:05;95279.50;;;15.92;28.15
46638;BME280;32365;46.938;7.390;2023-03-16T10:32:33;95291.63;;;17.78;27.58
46638;BME280;32365;46.938;7.390;2023-03-16T10:35:03;95279.50;;;15.56;28.65
46638;BME280;32365;46.938;7.390;2023-03-16T10:37:32;95276.34;;;15.90;29.40
46638;BME280;32365;46.938;7.390;2023-03-16T10:39:59;95288.88;;;16.80;27.46
46638;BME280;32365;46.938;7.390;2023-03-16T10:42:26;95291.84;;;16.57;28.39
46638;BME280;32365;46.938;7.390;2023-03-16T10:44:58;95282.50;;;17.41;27.31
46638;BME280;32365;46.938;7.390;2023-03-16T10:47:29;95285.50;;;16.69;28.72
46638;BME280;32365;46.938;7.390;2023-03-16T10:49:56;95283.97;;;14.08;31.61
46638;BME280;32365;46.938;7.390;2023-03-16T10:52:28;95278.31;;;14.16;31.44
46638;BME280;32365;46.938;7.390;2023-03-16T10:55:01;95278.19;;;15.84;26.69
46638;BME280;32365;46.938;7.390;2023-03-16T10:57:33;95273.19;;;15.98;26.56
46638;BME280;32365;46.938;7.390;2023-03-16T11:00:06;95282.38;;;17.91;24.70
46638;BME280;32365;46.938;7.390;2023-03-16T11:02:45;95272.81;;;18.98;22.21
46638;BME280;32365;46.938;7.390;2023-03-16T11:05:14;95284.31;;;16.40;25.39
46638;BME280;32365;46.938;7.390;2023-03-16T11:07:47;95287.25;;;15.04;29.79
46638;BME280;32365;46.938;7.390;2023-03-16T11:10:24;95282.28;;;17.37;25.62
46638;BME280;32365;46.938;7.390;2023-03-16T11:12:51;95279.63;;;18.99;24.59
46638;BME280;32365;46.938;7.390;2023-03-16T11:15:20;95280.31;;;17.83;27.64
46638;BME280;32365;46.938;7.390;2023-03-16T11:17:49;95279.69;;;20.68;22.65
46638;BME280;32365;46.938;7.390;2023-03-16T11:20:21;95278.84;;;20.58;21.89
46638;BME280;32365;46.938;7.390;2023-03-16T11:22:49;95276.41;;;20.90;22.01
46638;BME280;32365;46.938;7.390;2023-03-16T11:25:20;95281.88;;;21.84;21.41
46638;BME280;32365;46.938;7.390;2023-03-16T11:28:04;95269.38;;;19.88;25.41
46638;BME280;32365;46.938;7.390;2023-03-16T11:30:39;95264.13;;;19.35;23.57
46638;BME280;32365;46.938;7.390;2023-03-16T11:33:07;95258.78;;;18.21;23.80
46638;BME280;32365;46.938;7.390;2023-03-16T11:35:40;95263.09;;;17.13;25.99
46638;BME280;32365;46.938;7.390;2023-03-16T11:38:14;95255.97;;;20.31;22.73
46638;BME280;32365;46.938;7.390;2023-03-16T11:40:51;95247.88;;;19.00;24.68
46638;BME280;32365;46.938;7.390;2023-03-16T11:43:43;95259.59;;;21.59;21.93
46638;BME280;32365;46.938;7.390;2023-03-16T11:46:16;95256.16;;;20.76;22.03
46638;BME280;32365;46.938;7.390;2023-03-16T11:48:52;95258.72;;;18.94;25.11
46638;BME280;32365;46.938;7.390;2023-03-16T11:51:33;95253.25;;;20.08;24.66
46638;BME280;32365;46.938;7.390;2023-03-16T11:56:58;95250.09;;;19.92;23.69
46638;BME280;32365;46.938;7.390;2023-03-16T11:59:36;95247.66;;;19.49;24.86
46638;BME280;32365;46.938;7.390;2023-03-16T12:02:30;95249.31;;;18.68;26.46
46638;BME280;32365;46.938;7.390;2023-03-16T12:05:18;95243.78;;;18.26;26.23
46638;BME280;32365;46.938;7.390;2023-03-16T12:07:55;95240.44;;;16.37;27.76
46638;BME280;32365;46.938;7.390;2023-03-16T12:10:31;95238.53;;;17.43;28.46
46638;BME280;32365;46.938;7.390;2023-03-16T12:13:20;95235.06;;;17.82;28.59
46638;BME280;32365;46.938;7.390;2023-03-16T12:15:56;95224.44;;;21.41;22.19
46638;BME280;32365;46.938;7.390;2023-03-16T12:18:38;95214.16;;;19.74;23.63
46638;BME280;32365;46.938;7.390;2023-03-16T12:21:12;95209.25;;;18.43;30.33
46638;BME280;32365;46.938;7.390;2023-03-16T12:23:44;95211.91;;;16.46;29.97
46638;BME280;32365;46.938;7.390;2023-03-16T12:26:15;95214.59;;;16.36;29.45
46638;BME280;32365;46.938;7.390;2023-03-16T12:28:43;95208.25;;;17.66;28.94
46638;BME280;32365;46.938;7.390;2023-03-16T12:31:12;95211.59;;;19.54;26.11
46638;BME280;32365;46.938;7.390;2023-03-16T12:33:49;95214.22;;;17.72;26.25
46638;BME280;32365;46.938;7.390;2023-03-16T12:36:34;95206.72;;;20.23;24.19
46638;BME280;32365;46.938;7.390;2023-03-16T12:39:07;95201.56;;;18.28;27.16
46638;BME280;32365;46.938;7.390;2023-03-16T12:41:48;95192.13;;;20.17;24.02
46638;BME280;32365;46.938;7.390;2023-03-16T12:44:21;95192.91;;;20.68;23.63
46638;BME280;32365;46.938;7.390;2023-03-16T12:46:57;95186.38;;;20.01;23.16
46638;BME280;32365;46.938;7.390;2023-03-16T12:49:31;95181.13;;;20.01;23.63
46638;BME280;32365;46.938;7.390;2023-03-16T12:51:59;95186.44;;;19.20;25.61
46638;BME280;32365;46.938;7.390;2023-03-16T12:54:27;95187.41;;;19.25;26.16
46638;BME280;32365;46.938;7.390;2023-03-16T12:56:59;95191.84;;;20.69;23.66
46638;BME280;32365;46.938;7.390;2023-03-16T12:59:37;95185.31;;;20.66;24.33
46638;BME280;32365;46.938;7.390;2023-03-16T13:02:10;95179.84;;;20.26;24.08
46638;BME280;32365;46.938;7.390;2023-03-16T13:04:42;95182.03;;;21.74;21.67
46638;BME280;32365;46.938;7.390;2023-03-16T13:07:15;95179.97;;;21.71;21.90
46638;BME280;32365;46.938;7.390;2023-03-16T13:09:44;95178.06;;;21.31;23.30
46638;BME280;32365;46.938;7.390;2023-03-16T13:12:22;95177.13;;;20.31;23.91
46638;BME280;32365;46.938;7.390;2023-03-16T13:14:49;95173.16;;;17.92;24.79
46638;BME280;32365;46.938;7.390;2023-03-16T13:17:24;95177.19;;;19.70;24.55
46638;BME280;32365;46.938;7.390;2023-03-16T13:22:47;95174.50;;;21.04;23.23
46638;BME280;32365;46.938;7.390;2023-03-16T13:25:21;95171.38;;;21.25;23.27
46638;BME280;32365;46.938;7.390;2023-03-16T13:27:51;95172.75;;;19.98;24.44
46638;BME280;32365;46.938;7.390;2023-03-16T13:30:22;95179.63;;;20.50;23.23
46638;BME280;32365;46.938;7.390;2023-03-16T13:32:52;95174.53;;;19.89;23.36
46638;BME280;32365;46.938;7.390;2023-03-16T13:35:26;95167.84;;;17.48;25.42
46638;BME280;32365;46.938;7.390;2023-03-16T13:37:53;95167.63;;;17.69;27.04
46638;BME280;32365;46.938;7.390;2023-03-16T13:40:23;95164.97;;;18.80;25.58
46638;BME280;32365;46.938;7.390;2023-03-16T13:42:51;95170.94;;;18.67;25.63
46638;BME280;32365;46.938;7.390;2023-03-16T13:45:21;95177.16;;;19.09;24.83
46638;BME280;32365;46.938;7.390;2023-03-16T13:47:49;95172.13;;;19.60;25.00
46638;BME280;32365;46.938;7.390;2023-03-16T13:50:16;95176.72;;;19.82;25.01
46638;BME280;32365;46.938;7.390;2023-03-16T13:52:54;95171.75;;;19.19;23.42
46638;BME280;32365;46.938;7.390;2023-03-16T13:55:26;95174.94;;;20.47;23.56
46638;BME280;32365;46.938;7.390;2023-03-16T13:57:55;95171.91;;;19.56;24.23
46638;BME280;32365;46.938;7.390;2023-03-16T14:00:23;95172.34;;;19.63;25.01
46638;BME280;32365;46.938;7.390;2023-03-16T14:02:53;95169.34;;;18.85;25.35
46638;BME280;32365;46.938;7.390;2023-03-16T14:05:23;95163.72;;;18.58;24.98
46638;BME280;32365;46.938;7.390;2023-03-16T14:07:53;95173.56;;;17.80;25.96
46638;BME280;32365;46.938;7.390;2023-03-16T14:10:20;95181.47;;;17.99;25.29
46638;BME280;32365;46.938;7.390;2023-03-16T14:12:52;95176.13;;;18.09;25.34
46638;BME280;32365;46.938;7.390;2023-03-16T14:15:19;95175.69;;;18.45;25.08
46638;BME280;32365;46.938;7.390;2023-03-16T14:17:48;95168.94;;;17.96;27.83
46638;BME280;32365;46.938;7.390;2023-03-16T14:20:18;95168.91;;;19.49;24.37
46638;BME280;32365;46.938;7.390;2023-03-16T14:22:45;95166.25;;;19.96;23.72
46638;BME280;32365;46.938;7.390;2023-03-16T14:25:18;95169.63;;;20.24;22.88
46638;BME280;32365;46.938;7.390;2023-03-16T14:27:46;95163.88;;;20.22;23.56
46638;BME280;32365;46.938;7.390;2023-03-16T14:30:15;95167.50;;;20.26;23.52
46638;BME280;32365;46.938;7.390;2023-03-16T14:32:54;95172.00;;;20.63;23.15
46638;BME280;32365;46.938;7.390;2023-03-16T14:35:21;95172.31;;;20.33;22.94
46638;BME280;32365;46.938;7.390;2023-03-16T14:37:50;95168.16;;;20.69;22.65
46638;BME280;32365;46.938;7.390;2023-03-16T14:40:30;95160.50;;;19.94;23.69
46638;BME280;32365;46.938;7.390;2023-03-16T14:42:59;95163.91;;;21.18;22.51
46638;BME280;32365;46.938;7.390;2023-03-16T14:45:31;95158.69;;;19.14;23.92
46638;BME280;32365;46.938;7.390;2023-03-16T14:48:04;95156.69;;;18.35;27.13
46638;BME280;32365;46.938;7.390;2023-03-16T14:50:31;95159.34;;;20.14;24.59
46638;BME280;32365;46.938;7.390;2023-03-16T14:52:59;95154.44;;;20.21;24.46
46638;BME280;32365;46.938;7.390;2023-03-16T14:55:26;95150.75;;;21.50;22.39
46638;BME280;32365;46.938;7.390;2023-03-16T14:57:54;95147.16;;;21.46;21.55
46638;BME280;32365;46.938;7.390;2023-03-16T15:00:21;95151.00;;;18.85;26.22
46638;BME280;32365;46.938;7.390;2023-03-16T15:02:55;95155.41;;;20.25;23.96
46638;BME280;32365;46.938;7.390;2023-03-16T15:05:29;95149.00;;;20.68;21.90
46638;BME280;32365;46.938;7.390;2023-03-16T15:07:56;95151.16;;;20.52;22.92
46638;BME280;32365;46.938;7.390;2023-03-16T15:10:26;95158.09;;;20.48;24.09
46638;BME280;32365;46.938;7.390;2023-03-16T15:12:54;95144.63;;;20.13;23.51
46638;BME280;32365;46.938;7.390;2023-03-16T15:15:29;95142.88;;;20.08;23.30
46638;BME280;32365;46.938;7.390;2023-03-16T15:17:57;95139.38;;;19.71;24.67
46638;BME280;32365;46.938;7.390;2023-03-16T15:20:26;95140.50;;;17.84;26.75
46638;BME280;32365;46.938;7.390;2023-03-16T15:22:56;95144.03;;;15.85;29.23
46638;BME280;32365;46.938;7.390;2023-03-16T15:25:31;95135.22;;;15.40;29.33
46638;BME280;32365;46.938;7.390;2023-03-16T15:28:03;95130.81;;;15.25;29.84
46638;BME280;32365;46.938;7.390;2023-03-16T15:30:35;95133.66;;;15.29;30.96
46638;BME280;32365;46.938;7.390;2023-03-16T15:33:02;95116.72;;;14.49;31.69
46638;BME280;32365;46.938;7.390;2023-03-16T15:35:28;95116.75;;;15.21;30.71
46638;BME280;32365;46.938;7.390;2023-03-16T15:37:55;95114.13;;;14.64;33.76
46638;BME280;32365;46.938;7.390;2023-03-16T15:40:23;95116.78;;;14.95;32.81
46638;BME280;32365;46.938;7.390;2023-03-16T15:42:51;95104.25;;;14.71;33.59
46638;BME280;32365;46.938;7.390;2023-03-16T15:45:20;95112.84;;;14.92;33.54
46638;BME280;32365;46.938;7.390;2023-03-16T15:47:48;95103.59;;;15.62;30.55
46638;BME280;32365;46.938;7.390;2023-03-16T15:50:17;95097.69;;;15.36;30.46
46638;BME280;32365;46.938;7.390;2023-03-16T15:52:46;95100.34;;;14.89;32.12
46638;BME280;32365;46.938;7.390;2023-03-16T15:55:16;95101.91;;;14.70;34.08
46638;BME280;32365;46.938;7.390;2023-03-16T15:57:44;95089.09;;;15.15;34.41
46638;BME280;32365;46.938;7.390;2023-03-16T16:00:29;95100.34;;;14.84;34.42
46638;BME280;32365;46.938;7.390;2023-03-16T16:02:58;95108.16;;;15.05;33.06
46638;BME280;32365;46.938;7.390;2023-03-16T16:05:25;95102.97;;;13.74;35.75
46638;BME280;32365;46.938;7.390;2023-03-16T16:07:52;95117.22;;;14.35;35.51
46638;BME280;32365;46.938;7.390;2023-03-16T16:10:19;95119.63;;;15.14;32.53
46638;BME280;32365;46.938;7.390;2023-03-16T16:12:47;95110.50;;;14.91;33.53
46638;BME280;32365;46.938;7.390;2023-03-16T16:15:24;95107.59;;;14.56;33.74
46638;BME280;32365;46.938;7.390;2023-03-16T16:17:53;95113.69;;;13.88;34.85
46638;BME280;32365;46.938;7.390;2023-03-16T16:20:22;95105.28;;;13.65;35.21
46638;BME280;32365;46.938;7.390;2023-03-16T16:22:49;95105.38;;;13.00;37.39
46638;BME280;32365;46.938;7.390;2023-03-16T16:25:17;95101.63;;;13.23;37.00
46638;BME280;32365;46.938;7.390;2023-03-16T16:27:44;95089.34;;;12.16;38.44
46638;BME280;32365;46.938;7.390;2023-03-16T16:30:19;95084.09;;;12.66;39.36
46638;BME280;32365;46.938;7.390;2023-03-16T16:32:46;95086.41;;;12.35;37.54
46638;BME280;32365;46.938;7.390;2023-03-16T16:35:16;95093.16;;;11.86;39.13
46638;BME280;32365;46.938;7.390;2023-03-16T16:37:43;95087.25;;;12.13;38.43
46638;BME280;32365;46.938;7.390;2023-03-16T16:40:17;95094.63;;;11.99;40.76
46638;BME280;32365;46.938;7.390;2023-03-16T16:42:45;95086.50;;;11.51;39.74
46638;BME280;32365;46.938;7.390;2023-03-16T16:45:17;95090.06;;;11.45;41.11
46638;BME280;32365;46.938;7.390;2023-03-16T16:47:45;95089.16;;;11.34;41.68
46638;BME280;32365;46.938;7.390;2023-03-16T16:50:16;95088.34;;;11.50;42.13
46638;BME280;32365;46.938;7.390;2023-03-16T16:52:43;95083.06;;;11.45;40.80
46638;BME280;32365;46.938;7.390;2023-03-16T16:55:10;95079.97;;;10.87;42.49
46638;BME280;32365;46.938;7.390;2023-03-16T16:57:37;95073.06;;;10.92;44.17
46638;BME280;32365;46.938;7.390;2023-03-16T17:00:06;95075.47;;;10.99;43.26
46638;BME280;32365;46.938;7.390;2023-03-16T17:02:41;95081.69;;;10.81;42.98
46638;BME280;32365;46.938;7.390;2023-03-16T17:05:15;95078.00;;;10.60;44.63
46638;BME280;32365;46.938;7.390;2023-03-16T17:07:42;95084.03;;;10.66;45.29
46638;BME280;32365;46.938;7.390;2023-03-16T17:10:13;95088.09;;;10.78;45.72
46638;BME280;32365;46.938;7.390;2023-03-16T17:12:39;95078.53;;;10.79;44.12
46638;BME280;32365;46.938;7.390;2023-03-16T17:15:16;95083.84;;;10.38;46.69
46638;BME280;32365;46.938;7.390;2023-03-16T17:17:43;95081.69;;;10.35;47.42
46638;BME280;32365;46.938;7.390;2023-03-16T17:20:16;95084.97;;;10.01;47.16
46638;BME280;32365;46.938;7.390;2023-03-16T17:22:45;95082.94;;;9.75;47.72
46638;BME280;32365;46.938;7.390;2023-03-16T17:25:13;95086.06;;;9.77;48.42
46638;BME280;32365;46.938;7.390;2023-03-16T17:27:40;95081.28;;;9.57;48.09
46638;BME280;32365;46.938;7.390;2023-03-16T17:30:24;95087.50;;;9.44;49.06
46638;BME280;32365;46.938;7.390;2023-03-16T17:32:52;95089.06;;;9.45;48.55
46638;BME280;32365;46.938;7.390;2023-03-16T17:35:21;95094.56;;;9.48;50.63
46638;BME280;32365;46.938;7.390;2023-03-16T17:37:48;95084.03;;;9.38;48.54
46638;BME280;32365;46.938;7.390;2023-03-16T17:40:16;95086.28;;;9.34;50.46
46638;BME280;32365;46.938;7.390;2023-03-16T17:42:44;95090.53;;;9.40;50.86
46638;BME280;32365;46.938;7.390;2023-03-16T17:45:17;95085.59;;;9.39;48.19
46638;BME280;32365;46.938;7.390;2023-03-16T17:47:44;95088.53;;;9.31;48.78
46638;BME280;32365;46.938;7.390;2023-03-16T17:50:18;95087.19;;;8.92;51.20
46638;BME280;32365;46.938;7.390;2023-03-16T17:52:47;95086.78;;;8.53;51.65
46638;BME280;32365;46.938;7.390;2023-03-16T17:55:14;95088.53;;;8.83;50.02
46638;BME280;32365;46.938;7.390;2023-03-16T17:57:47;95091.66;;;8.85;52.05
46638;BME280;32365;46.938;7.390;2023-03-16T18:00:21;95081.66;;;8.65;52.33
46638;BME280;32365;46.938;7.390;2023-03-16T18:02:50;95085.13;;;8.59;52.27
46638;BME280;32365;46.938;7.390;2023-03-16T18:05:20;95086.47;;;8.50;54.82
46638;BME280;32365;46.938;7.390;2023-03-16T18:07:48;95088.31;;;8.42;54.12
46638;BME280;32365;46.938;7.390;2023-03-16T18:10:16;95093.19;;;8.20;53.94
46638;BME280;32365;46.938;7.390;2023-03-16T18:12:43;95093.38;;;8.19;54.42
46638;BME280;32365;46.938;7.390;2023-03-16T18:15:14;95092.47;;;8.13;55.91
46638;BME280;32365;46.938;7.390;2023-03-16T18:17:40;95092.47;;;8.13;57.82
46638;BME280;32365;46.938;7.390;2023-03-16T18:20:24;95097.38;;;8.02;58.75
46638;BME280;32365;46.938;7.390;2023-03-16T18:22:53;95096.59;;;8.02;61.36
46638;BME280;32365;46.938;7.390;2023-03-16T18:25:27;95095.75;;;7.90;61.47
46638;BME280;32365;46.938;7.390;2023-03-16T18:27:54;95105.44;;;7.76;60.68
46638;BME280;32365;46.938;7.390;2023-03-16T18:30:22;95106.78;;;7.60;61.25
46638;BME280;32365;46.938;7.390;2023-03-16T18:32:48;95115.50;;;7.59;63.27
46638;BME280;32365;46.938;7.390;2023-03-16T18:35:17;95111.22;;;7.52;61.28
46638;BME280;32365;46.938;7.390;2023-03-16T18:37:44;95106.31;;;7.51;61.45
46638;BME280;32365;46.938;7.390;2023-03-16T18:40:14;95111.94;;;7.41;61.94
46638;BME280;32365;46.938;7.390;2023-03-16T18:42:41;95109.56;;;7.21;64.27
46638;BME280;32365;46.938;7.390;2023-03-16T18:45:13;95107.84;;;7.15;65.15
46638;BME280;32365;46.938;7.390;2023-03-16T18:47:45;95106.03;;;7.15;63.59
46638;BME280;32365;46.938;7.390;2023-03-16T18:50:19;95110.66;;;6.88;64.88
46638;BME280;32365;46.938;7.390;2023-03-16T18:52:47;95111.06;;;6.85;66.30
46638;BME280;32365;46.938;7.390;2023-03-16T18:55:17;95114.00;;;6.88;67.13
46638;BME280;32365;46.938;7.390;2023-03-16T18:57:45;95113.63;;;6.85;67.00
46638;BME280;32365;46.938;7.390;2023-03-16T19:00:17;95111.97;;;6.72;67.39
46638;BME280;32365;46.938;7.390;2023-03-16T19:02:46;95109.19;;;6.41;66.79
46638;BME280;32365;46.938;7.390;2023-03-16T19:05:15;95112.72;;;6.47;68.36
46638;BME280;32365;46.938;7.390;2023-03-16T19:07:44;95109.63;;;6.31;67.64
46638;BME280;32365;46.938;7.390;2023-03-16T19:10:20;95107.91;;;6.25;67.70
46638;BME280;32365;46.938;7.390;2023-03-16T19:12:47;95100.97;;;6.26;69.73
46638;BME280;32365;46.938;7.390;2023-03-16T19:15:16;95108.69;;;6.26;69.86
46638;BME280;32365;46.938;7.390;2023-03-16T19:17:44;95114.19;;;6.29;67.98
46638;BME280;32365;46.938;7.390;2023-03-16T19:20:13;95106.41;;;6.43;67.38
46638;BME280;32365;46.938;7.390;2023-03-16T19:22:41;95103.25;;;6.41;67.05
46638;BME280;32365;46.938;7.390;2023-03-16T19:25:16;95115.63;;;6.25;67.95
46638;BME280;32365;46.938;7.390;2023-03-16T19:27:43;95106.28;;;5.85;68.83
46638;BME280;32365;46.938;7.390;2023-03-16T19:30:19;95104.66;;;5.91;70.76
46638;BME280;32365;46.938;7.390;2023-03-16T19:32:47;95108.50;;;5.68;71.54
46638;BME280;32365;46.938;7.390;2023-03-16T19:35:14;95107.34;;;5.64;71.08
46638;BME280;32365;46.938;7.390;2023-03-16T19:37:41;95113.50;;;5.57;71.12
46638;BME280;32365;46.938;7.390;2023-03-16T19:40:09;95109.94;;;5.64;70.04
46638;BME280;32365;46.938;7.390;2023-03-16T19:42:38;95115.78;;;5.78;69.67
46638;BME280;32365;46.938;7.390;2023-03-16T19:45:06;95118.00;;;5.68;69.54
46638;BME280;32365;46.938;7.390;2023-03-16T19:47:35;95117.41;;;5.73;69.99
46638;BME280;32365;46.938;7.390;2023-03-16T19:50:05;95123.75;;;5.63;71.72
46638;BME280;32365;46.938;7.390;2023-03-16T19:52:38;95117.03;;;5.62;71.20
46638;BME280;32365;46.938;7.390;2023-03-16T19:55:05;95119.00;;;5.67;70.87
46638;BME280;32365;46.938;7.390;2023-03-16T19:57:33;95115.41;;;5.81;69.56
46638;BME280;32365;46.938;7.390;2023-03-16T20:00:01;95112.22;;;5.86;69.12
46638;BME280;32365;46.938;7.390;2023-03-16T20:02:34;95116.19;;;5.75;69.83
46638;BME280;32365;46.938;7.390;2023-03-16T20:05:03;95123.72;;;5.70;69.86
46638;BME280;32365;46.938;7.390;2023-03-16T20:07:29;95117.06;;;5.55;70.39
46638;BME280;32365;46.938;7.390;2023-03-16T20:10:02;95111.16;;;5.42;72.45
46638;BME280;32365;46.938;7.390;2023-03-16T20:12:28;95119.13;;;4.93;72.72
46638;BME280;32365;46.938;7.390;2023-03-16T20:14:55;95108.47;;;4.89;73.39
46638;BME280;32365;46.938;7.390;2023-03-16T20:17:27;95108.66;;;4.74;74.02
46638;BME280;32365;46.938;7.390;2023-03-16T20:19:54;95113.97;;;4.53;75.33
46638;BME280;32365;46.938;7.390;2023-03-16T20:22:24;95109.63;;;4.60;74.51
46638;BME280;32365;46.938;7.390;2023-03-16T20:24:51;95107.66;;;4.49;75.36
46638;BME280;32365;46.938;7.390;2023-03-16T20:27:19;95110.81;;;4.51;76.25
